sensor_id;sensor_type;location;lat;lon;timestamp;temperature;humidity
36280;DHT22;22317;47.936;12.742;2022-12-18T00:00:32;-2.50;57.60
36280;DHT22;22317;47.936;12.742;2022-12-18T00:02:58;-3.60;56.90
36280;DHT22;22317;47.936;12.742;2022-12-18T00:05:23;-3.60;57.10
36280;DHT22;22317;47.936;12.742;2022-12-18T00:07:49;-3.40;57.20
36280;DHT22;22317;47.936;12.742;2022-12-18T00:10:18;-3.60;57.20
36280;DHT22;22317;47.936;12.742;2022-12-18T00:12:44;-3.60;57.30
36280;DHT22;22317;47.936;12.742;2022-12-18T00:15:09;-3.60;57.20
36280;DHT22;22317;47.936;12.742;2022-12-18T00:17:35;-3.60;57.20
36280;DHT22;22317;47.936;12.742;2022-12-18T00:20:01;-3.60;57.30
36280;DHT22;22317;47.936;12.742;2022-12-18T00:22:27;-3.40;57.20
36280;DHT22;22317;47.936;12.742;2022-12-18T00:24:53;-3.60;57.20
36280;DHT22;22317;47.936;12.742;2022-12-18T00:27:18;-3.60;57.30
36280;DHT22;22317;47.936;12.742;2022-12-18T00:29:44;-3.60;57.30
36280;DHT22;22317;47.936;12.742;2022-12-18T00:32:10;-3.60;57.20
36280;DHT22;22317;47.936;12.742;2022-12-18T00:34:35;-4.00;57.00
36280;DHT22;22317;47.936;12.742;2022-12-18T00:37:01;-3.70;57.10
36280;DHT22;22317;47.936;12.742;2022-12-18T00:39:27;-3.70;57.10
36280;DHT22;22317;47.936;12.742;2022-12-18T00:41:53;-3.70;57.30
36280;DHT22;22317;47.936;12.742;2022-12-18T00:44:37;-3.70;57.30
36280;DHT22;22317;47.936;12.742;2022-12-18T00:47:03;-3.70;57.40
36280;DHT22;22317;47.936;12.742;2022-12-18T00:49:28;-3.70;57.40
36280;DHT22;22317;47.936;12.742;2022-12-18T00:51:54;-3.70;57.30
36280;DHT22;22317;47.936;12.742;2022-12-18T00:54:20;-3.60;57.40
36280;DHT22;22317;47.936;12.742;2022-12-18T00:56:46;-3.80;57.30
36280;DHT22;22317;47.936;12.742;2022-12-18T00:59:11;-3.10;57.70
36280;DHT22;22317;47.936;12.742;2022-12-18T01:01:38;-3.80;57.30
36280;DHT22;22317;47.936;12.742;2022-12-18T01:04:05;-3.80;57.40
36280;DHT22;22317;47.936;12.742;2022-12-18T01:06:30;-3.80;57.50
36280;DHT22;22317;47.936;12.742;2022-12-18T01:08:56;-3.80;57.50
36280;DHT22;22317;47.936;12.742;2022-12-18T01:11:22;-3.30;57.80
36280;DHT22;22317;47.936;12.742;2022-12-18T01:13:48;-3.80;57.30
36280;DHT22;22317;47.936;12.742;2022-12-18T01:16:16;-3.70;57.30
36280;DHT22;22317;47.936;12.742;2022-12-18T01:18:41;-3.70;57.70
36280;DHT22;22317;47.936;12.742;2022-12-18T01:21:08;-3.70;57.60
36280;DHT22;22317;47.936;12.742;2022-12-18T01:23:36;-3.60;57.70
36280;DHT22;22317;47.936;12.742;2022-12-18T01:26:11;-3.60;57.60
36280;DHT22;22317;47.936;12.742;2022-12-18T01:28:38;-3.60;57.50
36280;DHT22;22317;47.936;12.742;2022-12-18T01:31:11;-3.60;57.30
36280;DHT22;22317;47.936;12.742;2022-12-18T01:33:37;-3.70;57.30
36280;DHT22;22317;47.936;12.742;2022-12-18T01:36:05;-3.70;57.40
36280;DHT22;22317;47.936;12.742;2022-12-18T01:38:31;-3.70;57.30
36280;DHT22;22317;47.936;12.742;2022-12-18T01:40:59;-2.90;57.90
36280;DHT22;22317;47.936;12.742;2022-12-18T01:46:15;-3.70;57.60
36280;DHT22;22317;47.936;12.742;2022-12-18T01:48:42;-3.70;58.20
36280;DHT22;22317;47.936;12.742;2022-12-18T01:51:10;-3.70;57.60
36280;DHT22;22317;47.936;12.742;2022-12-18T01:53:39;-3.30;57.80
36280;DHT22;22317;47.936;12.742;2022-12-18T01:56:05;-3.50;57.70
36280;DHT22;22317;47.936;12.742;2022-12-18T02:01:12;-3.70;57.40
36280;DHT22;22317;47.936;12.742;2022-12-18T02:03:41;-3.70;57.20
36280;DHT22;22317;47.936;12.742;2022-12-18T02:06:30;-3.40;57.60
36280;DHT22;22317;47.936;12.742;2022-12-18T02:09:11;-3.80;57.50
36280;DHT22;22317;47.936;12.742;2022-12-18T02:12:02;-3.80;58.00
36280;DHT22;22317;47.936;12.742;2022-12-18T02:17:18;-3.90;57.30
36280;DHT22;22317;47.936;12.742;2022-12-18T02:28:07;-3.90;57.60
36280;DHT22;22317;47.936;12.742;2022-12-18T02:30:37;-3.90;57.40
36280;DHT22;22317;47.936;12.742;2022-12-18T02:33:06;-3.90;57.40
36280;DHT22;22317;47.936;12.742;2022-12-18T02:35:34;-3.90;57.30
36280;DHT22;22317;47.936;12.742;2022-12-18T02:38:03;-3.80;57.40
36280;DHT22;22317;47.936;12.742;2022-12-18T02:40:32;-4.00;57.30
36280;DHT22;22317;47.936;12.742;2022-12-18T02:43:17;-3.80;57.40
36280;DHT22;22317;47.936;12.742;2022-12-18T02:45:58;-4.00;57.30
36280;DHT22;22317;47.936;12.742;2022-12-18T02:48:33;-4.00;57.40
36280;DHT22;22317;47.936;12.742;2022-12-18T02:51:10;-4.00;57.40
36280;DHT22;22317;47.936;12.742;2022-12-18T02:53:53;-4.00;57.40
36280;DHT22;22317;47.936;12.742;2022-12-18T02:56:28;-3.90;57.50
36280;DHT22;22317;47.936;12.742;2022-12-18T02:59:00;-4.10;57.40
36280;DHT22;22317;47.936;12.742;2022-12-18T03:04:30;-4.00;57.30
36280;DHT22;22317;47.936;12.742;2022-12-18T03:07:01;-4.00;57.30
36280;DHT22;22317;47.936;12.742;2022-12-18T03:09:31;-4.00;57.30
36280;DHT22;22317;47.936;12.742;2022-12-18T03:12:17;-4.10;57.20
36280;DHT22;22317;47.936;12.742;2022-12-18T03:20:39;-3.90;57.80
36280;DHT22;22317;47.936;12.742;2022-12-18T03:23:11;-4.20;57.10
36280;DHT22;22317;47.936;12.742;2022-12-18T03:25:41;-3.60;57.40
36280;DHT22;22317;47.936;12.742;2022-12-18T03:28:12;-3.90;57.20
36280;DHT22;22317;47.936;12.742;2022-12-18T03:30:39;-4.20;57.10
36280;DHT22;22317;47.936;12.742;2022-12-18T03:33:10;-4.20;57.10
36280;DHT22;22317;47.936;12.742;2022-12-18T03:35:42;-4.20;57.00
36280;DHT22;22317;47.936;12.742;2022-12-18T03:38:10;-4.30;57.00
36280;DHT22;22317;47.936;12.742;2022-12-18T03:43:26;-4.20;57.00
36280;DHT22;22317;47.936;12.742;2022-12-18T03:46:03;-4.30;56.90
36280;DHT22;22317;47.936;12.742;2022-12-18T03:48:41;-4.30;56.90
36280;DHT22;22317;47.936;12.742;2022-12-18T03:51:17;-4.30;57.10
36280;DHT22;22317;47.936;12.742;2022-12-18T03:56:35;-4.40;57.00
36280;DHT22;22317;47.936;12.742;2022-12-18T03:59:04;-4.30;57.00
36280;DHT22;22317;47.936;12.742;2022-12-18T04:01:34;-4.30;57.00
36280;DHT22;22317;47.936;12.742;2022-12-18T04:04:02;-4.40;57.00
36280;DHT22;22317;47.936;12.742;2022-12-18T04:06:33;-4.40;57.10
36280;DHT22;22317;47.936;12.742;2022-12-18T04:09:00;-4.30;57.10
36280;DHT22;22317;47.936;12.742;2022-12-18T04:11:27;-4.40;57.10
36280;DHT22;22317;47.936;12.742;2022-12-18T04:13:57;-4.30;57.10
36280;DHT22;22317;47.936;12.742;2022-12-18T04:16:25;-4.30;57.10
36280;DHT22;22317;47.936;12.742;2022-12-18T04:18:54;-4.30;57.10
36280;DHT22;22317;47.936;12.742;2022-12-18T04:21:21;-4.30;57.00
36280;DHT22;22317;47.936;12.742;2022-12-18T04:23:49;-4.30;57.20
36280;DHT22;22317;47.936;12.742;2022-12-18T04:26:16;-4.30;57.10
36280;DHT22;22317;47.936;12.742;2022-12-18T04:29:01;-4.30;57.20
36280;DHT22;22317;47.936;12.742;2022-12-18T04:31:27;-4.30;57.10
36280;DHT22;22317;47.936;12.742;2022-12-18T04:33:53;-4.30;57.10
36280;DHT22;22317;47.936;12.742;2022-12-18T04:36:20;-4.30;57.10
36280;DHT22;22317;47.936;12.742;2022-12-18T04:38:46;-4.30;57.10
36280;DHT22;22317;47.936;12.742;2022-12-18T04:41:14;-4.30;57.10
36280;DHT22;22317;47.936;12.742;2022-12-18T04:43:42;-4.10;57.30
36280;DHT22;22317;47.936;12.742;2022-12-18T04:46:08;-4.30;57.20
36280;DHT22;22317;47.936;12.742;2022-12-18T04:48:35;-4.10;57.20
36280;DHT22;22317;47.936;12.742;2022-12-18T04:51:02;-4.30;57.10
36280;DHT22;22317;47.936;12.742;2022-12-18T04:53:27;-4.30;57.10
36280;DHT22;22317;47.936;12.742;2022-12-18T04:56:08;-3.80;57.90
36280;DHT22;22317;47.936;12.742;2022-12-18T04:58:35;-4.30;57.10
36280;DHT22;22317;47.936;12.742;2022-12-18T05:01:00;-4.30;57.10
36280;DHT22;22317;47.936;12.742;2022-12-18T05:03:26;-4.30;57.10
36280;DHT22;22317;47.936;12.742;2022-12-18T05:05:52;-4.30;57.20
36280;DHT22;22317;47.936;12.742;2022-12-18T05:08:18;-4.30;57.20
36280;DHT22;22317;47.936;12.742;2022-12-18T05:10:44;-4.20;57.20
36280;DHT22;22317;47.936;12.742;2022-12-18T05:13:10;-4.30;57.10
36280;DHT22;22317;47.936;12.742;2022-12-18T05:15:36;-4.30;57.10
36280;DHT22;22317;47.936;12.742;2022-12-18T05:18:02;-4.30;57.10
36280;DHT22;22317;47.936;12.742;2022-12-18T05:20:29;-4.40;57.10
36280;DHT22;22317;47.936;12.742;2022-12-18T05:22:55;-4.30;57.20
36280;DHT22;22317;47.936;12.742;2022-12-18T05:25:21;-4.40;57.20
36280;DHT22;22317;47.936;12.742;2022-12-18T05:27:47;-4.40;57.20
36280;DHT22;22317;47.936;12.742;2022-12-18T05:30:13;-4.50;57.20
36280;DHT22;22317;47.936;12.742;2022-12-18T05:32:40;-4.50;57.30
36280;DHT22;22317;47.936;12.742;2022-12-18T05:35:07;-4.10;57.40
36280;DHT22;22317;47.936;12.742;2022-12-18T05:37:33;-4.50;57.20
36280;DHT22;22317;47.936;12.742;2022-12-18T05:39:59;-4.50;57.30
36280;DHT22;22317;47.936;12.742;2022-12-18T05:42:25;-4.50;57.30
36280;DHT22;22317;47.936;12.742;2022-12-18T05:44:50;-4.50;57.40
36280;DHT22;22317;47.936;12.742;2022-12-18T05:47:16;-4.50;57.40
36280;DHT22;22317;47.936;12.742;2022-12-18T05:49:42;-4.50;57.30
36280;DHT22;22317;47.936;12.742;2022-12-18T05:52:08;-4.60;57.40
36280;DHT22;22317;47.936;12.742;2022-12-18T05:54:34;-4.60;57.40
36280;DHT22;22317;47.936;12.742;2022-12-18T05:57:00;-4.60;57.20
36280;DHT22;22317;47.936;12.742;2022-12-18T05:59:26;-4.60;57.30
36280;DHT22;22317;47.936;12.742;2022-12-18T06:01:51;-4.70;57.30
36280;DHT22;22317;47.936;12.742;2022-12-18T06:04:17;-4.40;57.50
36280;DHT22;22317;47.936;12.742;2022-12-18T06:06:43;-4.70;57.40
36280;DHT22;22317;47.936;12.742;2022-12-18T06:09:08;-4.70;57.50
36280;DHT22;22317;47.936;12.742;2022-12-18T06:11:38;-4.80;57.50
36280;DHT22;22317;47.936;12.742;2022-12-18T06:14:05;-4.80;57.50
36280;DHT22;22317;47.936;12.742;2022-12-18T06:16:31;-4.80;57.40
36280;DHT22;22317;47.936;12.742;2022-12-18T06:18:58;-4.70;57.60
36280;DHT22;22317;47.936;12.742;2022-12-18T06:21:25;-4.90;57.40
36280;DHT22;22317;47.936;12.742;2022-12-18T06:23:50;-4.90;57.50
36280;DHT22;22317;47.936;12.742;2022-12-18T06:26:16;-4.70;57.70
36280;DHT22;22317;47.936;12.742;2022-12-18T06:28:42;-4.90;57.70
36280;DHT22;22317;47.936;12.742;2022-12-18T06:31:08;-4.90;57.70
36280;DHT22;22317;47.936;12.742;2022-12-18T06:33:34;-4.80;57.70
36280;DHT22;22317;47.936;12.742;2022-12-18T06:36:09;-4.90;57.60
36280;DHT22;22317;47.936;12.742;2022-12-18T06:38:39;-4.90;57.60
36280;DHT22;22317;47.936;12.742;2022-12-18T06:41:10;-4.90;57.70
36280;DHT22;22317;47.936;12.742;2022-12-18T06:43:36;-4.90;57.80
36280;DHT22;22317;47.936;12.742;2022-12-18T06:46:02;-4.90;57.70
36280;DHT22;22317;47.936;12.742;2022-12-18T06:48:29;-4.90;57.80
36280;DHT22;22317;47.936;12.742;2022-12-18T06:50:55;-4.90;57.90
36280;DHT22;22317;47.936;12.742;2022-12-18T06:53:21;-4.80;57.80
36280;DHT22;22317;47.936;12.742;2022-12-18T06:55:46;-4.90;57.70
36280;DHT22;22317;47.936;12.742;2022-12-18T06:58:12;-4.90;57.80
36280;DHT22;22317;47.936;12.742;2022-12-18T07:00:38;-4.70;58.00
36280;DHT22;22317;47.936;12.742;2022-12-18T07:03:04;-4.80;58.00
36280;DHT22;22317;47.936;12.742;2022-12-18T07:05:29;-4.60;58.70
36280;DHT22;22317;47.936;12.742;2022-12-18T07:07:55;-4.80;57.90
36280;DHT22;22317;47.936;12.742;2022-12-18T07:10:21;-4.80;57.70
36280;DHT22;22317;47.936;12.742;2022-12-18T07:12:47;-4.80;57.80
36280;DHT22;22317;47.936;12.742;2022-12-18T07:15:13;-4.80;57.80
36280;DHT22;22317;47.936;12.742;2022-12-18T07:17:38;-4.80;57.80
36280;DHT22;22317;47.936;12.742;2022-12-18T07:20:04;-4.80;57.80
36280;DHT22;22317;47.936;12.742;2022-12-18T07:22:30;-4.80;57.90
36280;DHT22;22317;47.936;12.742;2022-12-18T07:24:56;-4.70;57.90
36280;DHT22;22317;47.936;12.742;2022-12-18T07:27:22;-4.70;57.90
36280;DHT22;22317;47.936;12.742;2022-12-18T07:29:48;-4.70;57.90
36280;DHT22;22317;47.936;12.742;2022-12-18T07:32:14;-4.70;57.80
36280;DHT22;22317;47.936;12.742;2022-12-18T07:34:40;-4.70;57.90
36280;DHT22;22317;47.936;12.742;2022-12-18T07:37:05;-4.70;57.90
36280;DHT22;22317;47.936;12.742;2022-12-18T07:39:31;-4.70;58.00
36280;DHT22;22317;47.936;12.742;2022-12-18T07:41:57;-4.70;57.90
36280;DHT22;22317;47.936;12.742;2022-12-18T07:44:42;-4.60;58.10
36280;DHT22;22317;47.936;12.742;2022-12-18T07:47:08;-4.60;57.90
36280;DHT22;22317;47.936;12.742;2022-12-18T07:49:34;-4.60;57.80
36280;DHT22;22317;47.936;12.742;2022-12-18T07:52:00;-4.60;57.70
36280;DHT22;22317;47.936;12.742;2022-12-18T07:54:27;-4.70;57.60
36280;DHT22;22317;47.936;12.742;2022-12-18T07:56:52;-4.70;57.60
36280;DHT22;22317;47.936;12.742;2022-12-18T07:59:18;-4.50;57.70
36280;DHT22;22317;47.936;12.742;2022-12-18T08:01:44;-4.70;57.80
36280;DHT22;22317;47.936;12.742;2022-12-18T08:04:10;-4.70;57.90
36280;DHT22;22317;47.936;12.742;2022-12-18T08:06:36;-4.70;57.80
36280;DHT22;22317;47.936;12.742;2022-12-18T08:09:02;-4.70;57.70
36280;DHT22;22317;47.936;12.742;2022-12-18T08:11:29;-4.70;57.70
36280;DHT22;22317;47.936;12.742;2022-12-18T08:13:55;-4.70;57.90
36280;DHT22;22317;47.936;12.742;2022-12-18T08:16:21;-4.60;58.00
36280;DHT22;22317;47.936;12.742;2022-12-18T08:18:47;-4.70;57.90
36280;DHT22;22317;47.936;12.742;2022-12-18T08:21:16;-4.70;57.90
36280;DHT22;22317;47.936;12.742;2022-12-18T08:23:42;-4.70;57.90
36280;DHT22;22317;47.936;12.742;2022-12-18T08:26:09;-4.60;58.00
36280;DHT22;22317;47.936;12.742;2022-12-18T08:28:35;-4.60;58.00
36280;DHT22;22317;47.936;12.742;2022-12-18T08:31:01;-4.50;58.00
36280;DHT22;22317;47.936;12.742;2022-12-18T08:33:27;-4.50;57.80
36280;DHT22;22317;47.936;12.742;2022-12-18T08:35:53;-4.40;57.90
36280;DHT22;22317;47.936;12.742;2022-12-18T08:38:18;-4.40;57.80
36280;DHT22;22317;47.936;12.742;2022-12-18T08:40:44;-4.40;57.80
36280;DHT22;22317;47.936;12.742;2022-12-18T08:43:10;-4.40;57.70
36280;DHT22;22317;47.936;12.742;2022-12-18T08:45:55;-4.40;57.80
36280;DHT22;22317;47.936;12.742;2022-12-18T08:48:21;-4.20;57.80
36280;DHT22;22317;47.936;12.742;2022-12-18T08:50:57;-4.30;57.80
36280;DHT22;22317;47.936;12.742;2022-12-18T08:53:23;-4.20;57.80
36280;DHT22;22317;47.936;12.742;2022-12-18T08:55:48;-4.20;57.80
36280;DHT22;22317;47.936;12.742;2022-12-18T08:58:14;-4.10;57.80
36280;DHT22;22317;47.936;12.742;2022-12-18T09:00:40;-4.10;57.80
36280;DHT22;22317;47.936;12.742;2022-12-18T09:03:11;-3.80;57.80
36280;DHT22;22317;47.936;12.742;2022-12-18T09:05:37;-4.00;57.70
36280;DHT22;22317;47.936;12.742;2022-12-18T09:08:03;-3.60;57.70
36280;DHT22;22317;47.936;12.742;2022-12-18T09:10:28;-3.90;57.50
36280;DHT22;22317;47.936;12.742;2022-12-18T09:12:54;-3.90;57.60
36280;DHT22;22317;47.936;12.742;2022-12-18T09:15:22;-3.90;57.50
36280;DHT22;22317;47.936;12.742;2022-12-18T09:17:47;-3.90;57.30
36280;DHT22;22317;47.936;12.742;2022-12-18T09:20:15;-3.90;57.20
36280;DHT22;22317;47.936;12.742;2022-12-18T09:22:41;-3.80;57.20
36280;DHT22;22317;47.936;12.742;2022-12-18T09:25:07;-4.00;57.20
36280;DHT22;22317;47.936;12.742;2022-12-18T09:27:34;-3.70;57.50
36280;DHT22;22317;47.936;12.742;2022-12-18T09:29:59;-4.00;57.20
36280;DHT22;22317;47.936;12.742;2022-12-18T09:32:25;-4.00;57.20
36280;DHT22;22317;47.936;12.742;2022-12-18T09:34:51;-3.90;58.00
36280;DHT22;22317;47.936;12.742;2022-12-18T09:37:17;-3.70;57.50
36280;DHT22;22317;47.936;12.742;2022-12-18T09:39:43;-3.90;57.20
36280;DHT22;22317;47.936;12.742;2022-12-18T09:42:20;-3.90;57.30
36280;DHT22;22317;47.936;12.742;2022-12-18T09:44:51;-3.80;57.80
36280;DHT22;22317;47.936;12.742;2022-12-18T09:47:27;-3.80;57.50
36280;DHT22;22317;47.936;12.742;2022-12-18T09:50:00;-3.70;57.60
36280;DHT22;22317;47.936;12.742;2022-12-18T09:52:33;-3.60;57.50
36280;DHT22;22317;47.936;12.742;2022-12-18T09:55:02;-3.60;57.40
36280;DHT22;22317;47.936;12.742;2022-12-18T09:57:33;-3.50;57.30
36280;DHT22;22317;47.936;12.742;2022-12-18T10:00:18;-3.40;57.30
36280;DHT22;22317;47.936;12.742;2022-12-18T10:02:45;-3.40;57.30
36280;DHT22;22317;47.936;12.742;2022-12-18T10:05:16;-3.10;57.40
36280;DHT22;22317;47.936;12.742;2022-12-18T10:10:47;-3.10;57.10
36280;DHT22;22317;47.936;12.742;2022-12-18T10:21:10;-2.80;56.80
36280;DHT22;22317;47.936;12.742;2022-12-18T10:26:39;-2.60;56.60
36280;DHT22;22317;47.936;12.742;2022-12-18T10:29:13;-2.50;56.70
36280;DHT22;22317;47.936;12.742;2022-12-18T10:31:39;-2.50;56.70
36280;DHT22;22317;47.936;12.742;2022-12-18T10:34:10;-2.40;56.50
36280;DHT22;22317;47.936;12.742;2022-12-18T10:36:40;-2.40;56.20
36280;DHT22;22317;47.936;12.742;2022-12-18T10:39:22;-2.30;56.10
36280;DHT22;22317;47.936;12.742;2022-12-18T10:41:48;-2.30;56.10
36280;DHT22;22317;47.936;12.742;2022-12-18T10:46:48;-2.30;55.90
36280;DHT22;22317;47.936;12.742;2022-12-18T10:49:33;-1.90;56.00
36280;DHT22;22317;47.936;12.742;2022-12-18T10:52:19;-2.30;55.60
36280;DHT22;22317;47.936;12.742;2022-12-18T10:54:53;-2.40;55.50
36280;DHT22;22317;47.936;12.742;2022-12-18T10:59:57;-2.40;55.60
36280;DHT22;22317;47.936;12.742;2022-12-18T11:02:37;-2.40;55.80
36280;DHT22;22317;47.936;12.742;2022-12-18T11:07:51;-2.30;56.30
36280;DHT22;22317;47.936;12.742;2022-12-18T11:10:21;-2.30;55.50
36280;DHT22;22317;47.936;12.742;2022-12-18T11:12:48;-2.20;55.40
36280;DHT22;22317;47.936;12.742;2022-12-18T11:15:27;-2.30;55.30
36280;DHT22;22317;47.936;12.742;2022-12-18T11:17:55;-2.30;55.30
36280;DHT22;22317;47.936;12.742;2022-12-18T11:20:34;-2.30;55.30
36280;DHT22;22317;47.936;12.742;2022-12-18T11:23:03;-2.30;55.30
36280;DHT22;22317;47.936;12.742;2022-12-18T11:25:30;-2.20;55.50
36280;DHT22;22317;47.936;12.742;2022-12-18T11:28:02;-2.20;55.60
36280;DHT22;22317;47.936;12.742;2022-12-18T11:30:30;-2.10;55.50
36280;DHT22;22317;47.936;12.742;2022-12-18T11:33:19;-2.10;55.50
36280;DHT22;22317;47.936;12.742;2022-12-18T11:35:55;-2.00;55.50
36280;DHT22;22317;47.936;12.742;2022-12-18T11:38:35;-1.90;55.20
36280;DHT22;22317;47.936;12.742;2022-12-18T11:43:39;-1.50;55.50
36280;DHT22;22317;47.936;12.742;2022-12-18T11:46:16;-0.60;55.60
36280;DHT22;22317;47.936;12.742;2022-12-18T11:48:54;-1.20;54.90
36280;DHT22;22317;47.936;12.742;2022-12-18T11:51:43;-1.10;54.90
36280;DHT22;22317;47.936;12.742;2022-12-18T11:54:14;-0.90;54.70
36280;DHT22;22317;47.936;12.742;2022-12-18T12:03:00;-0.50;54.50
36280;DHT22;22317;47.936;12.742;2022-12-18T12:16:29;0.10;53.50
36280;DHT22;22317;47.936;12.742;2022-12-18T12:25:25;0.30;52.90
36280;DHT22;22317;47.936;12.742;2022-12-18T12:33:43;0.40;52.40
36280;DHT22;22317;47.936;12.742;2022-12-18T12:39:08;0.30;51.70
36280;DHT22;22317;47.936;12.742;2022-12-18T12:41:36;0.30;51.80
36280;DHT22;22317;47.936;12.742;2022-12-18T12:44:25;0.30;51.70
36280;DHT22;22317;47.936;12.742;2022-12-18T12:46:57;0.30;51.90
36280;DHT22;22317;47.936;12.742;2022-12-18T12:49:27;0.20;51.60
36280;DHT22;22317;47.936;12.742;2022-12-18T12:54:26;0.20;51.30
36280;DHT22;22317;47.936;12.742;2022-12-18T12:57:17;0.10;51.50
36280;DHT22;22317;47.936;12.742;2022-12-18T12:59:49;0.10;51.30
36280;DHT22;22317;47.936;12.742;2022-12-18T13:05:26;0.10;51.20
36280;DHT22;22317;47.936;12.742;2022-12-18T13:10:40;0.10;51.00
36280;DHT22;22317;47.936;12.742;2022-12-18T13:13:13;0.10;51.10
36280;DHT22;22317;47.936;12.742;2022-12-18T13:16:06;0.10;51.30
36280;DHT22;22317;47.936;12.742;2022-12-18T13:18:32;0.20;51.30
36280;DHT22;22317;47.936;12.742;2022-12-18T13:31:03;0.40;50.70
36280;DHT22;22317;47.936;12.742;2022-12-18T13:38:40;0.60;50.90
36280;DHT22;22317;47.936;12.742;2022-12-18T13:43:46;0.90;50.70
36280;DHT22;22317;47.936;12.742;2022-12-18T13:46:21;0.80;50.60
36280;DHT22;22317;47.936;12.742;2022-12-18T13:51:20;0.90;50.50
36280;DHT22;22317;47.936;12.742;2022-12-18T13:56:30;1.30;50.60
36280;DHT22;22317;47.936;12.742;2022-12-18T13:59:11;1.50;50.70
36280;DHT22;22317;47.936;12.742;2022-12-18T14:04:22;1.90;50.10
36280;DHT22;22317;47.936;12.742;2022-12-18T14:06:52;2.10;50.00
36280;DHT22;22317;47.936;12.742;2022-12-18T14:09:24;2.40;50.10
36280;DHT22;22317;47.936;12.742;2022-12-18T14:11:51;2.60;49.60
36280;DHT22;22317;47.936;12.742;2022-12-18T14:14:18;2.80;49.00
36280;DHT22;22317;47.936;12.742;2022-12-18T14:16:45;2.90;48.60
36280;DHT22;22317;47.936;12.742;2022-12-18T14:19:14;3.00;48.10
36280;DHT22;22317;47.936;12.742;2022-12-18T14:21:47;3.20;47.70
36280;DHT22;22317;47.936;12.742;2022-12-18T14:24:21;3.10;47.50
36280;DHT22;22317;47.936;12.742;2022-12-18T14:26:50;3.00;47.20
36280;DHT22;22317;47.936;12.742;2022-12-18T14:29:30;3.80;47.30
36280;DHT22;22317;47.936;12.742;2022-12-18T14:32:14;2.80;46.60
36280;DHT22;22317;47.936;12.742;2022-12-18T14:34:52;2.60;46.50
36280;DHT22;22317;47.936;12.742;2022-12-18T14:37:23;2.40;46.40
36280;DHT22;22317;47.936;12.742;2022-12-18T14:39:58;2.20;46.30
36280;DHT22;22317;47.936;12.742;2022-12-18T14:42:26;1.90;46.00
36280;DHT22;22317;47.936;12.742;2022-12-18T14:47:57;1.30;45.80
36280;DHT22;22317;47.936;12.742;2022-12-18T14:50:23;1.20;46.30
36280;DHT22;22317;47.936;12.742;2022-12-18T14:52:49;0.80;46.30
36280;DHT22;22317;47.936;12.742;2022-12-18T14:55:16;0.50;46.40
36280;DHT22;22317;47.936;12.742;2022-12-18T14:57:43;0.30;46.50
36280;DHT22;22317;47.936;12.742;2022-12-18T15:00:21;0.00;46.50
36280;DHT22;22317;47.936;12.742;2022-12-18T15:02:50;-0.20;46.70
36280;DHT22;22317;47.936;12.742;2022-12-18T15:05:30;-0.20;47.00
36280;DHT22;22317;47.936;12.742;2022-12-18T15:08:00;0.30;47.50
36280;DHT22;22317;47.936;12.742;2022-12-18T15:10:34;-0.90;47.80
36280;DHT22;22317;47.936;12.742;2022-12-18T15:20:57;-1.70;47.90
36280;DHT22;22317;47.936;12.742;2022-12-18T15:23:25;-1.90;48.10
36280;DHT22;22317;47.936;12.742;2022-12-18T15:28:46;-2.30;48.30
36280;DHT22;22317;47.936;12.742;2022-12-18T15:33:42;-2.50;48.50
36280;DHT22;22317;47.936;12.742;2022-12-18T15:36:12;-2.70;48.60
36280;DHT22;22317;47.936;12.742;2022-12-18T15:38:38;-2.80;48.80
36280;DHT22;22317;47.936;12.742;2022-12-18T15:41:05;-3.00;48.80
36280;DHT22;22317;47.936;12.742;2022-12-18T15:43:31;-3.10;48.90
36280;DHT22;22317;47.936;12.742;2022-12-18T15:46:01;-2.90;49.50
36280;DHT22;22317;47.936;12.742;2022-12-18T15:48:27;-3.30;49.10
36280;DHT22;22317;47.936;12.742;2022-12-18T15:50:54;-2.70;49.50
36280;DHT22;22317;47.936;12.742;2022-12-18T15:53:27;-3.50;49.20
36280;DHT22;22317;47.936;12.742;2022-12-18T15:55:53;-3.20;49.40
36280;DHT22;22317;47.936;12.742;2022-12-18T15:58:37;-3.00;49.70
36280;DHT22;22317;47.936;12.742;2022-12-18T16:01:03;-3.20;49.70
36280;DHT22;22317;47.936;12.742;2022-12-18T16:03:29;-4.10;49.70
36280;DHT22;22317;47.936;12.742;2022-12-18T16:05:55;-4.10;49.90
36280;DHT22;22317;47.936;12.742;2022-12-18T16:08:21;-3.90;50.20
36280;DHT22;22317;47.936;12.742;2022-12-18T16:10:47;-3.70;50.10
36280;DHT22;22317;47.936;12.742;2022-12-18T16:13:15;-4.40;50.00
36280;DHT22;22317;47.936;12.742;2022-12-18T16:15:42;-4.50;50.40
36280;DHT22;22317;47.936;12.742;2022-12-18T16:18:07;-2.90;50.90
36280;DHT22;22317;47.936;12.742;2022-12-18T16:20:33;-4.50;50.50
36280;DHT22;22317;47.936;12.742;2022-12-18T16:22:59;-4.60;50.50
36280;DHT22;22317;47.936;12.742;2022-12-18T16:25:27;-4.10;50.70
36280;DHT22;22317;47.936;12.742;2022-12-18T16:27:53;-2.90;51.80
36280;DHT22;22317;47.936;12.742;2022-12-18T16:30:26;-3.40;51.70
36280;DHT22;22317;47.936;12.742;2022-12-18T16:32:54;-4.90;51.00
36280;DHT22;22317;47.936;12.742;2022-12-18T16:35:20;-3.50;51.90
36280;DHT22;22317;47.936;12.742;2022-12-18T16:37:46;-5.00;51.20
36280;DHT22;22317;47.936;12.742;2022-12-18T16:40:14;-4.90;51.10
36280;DHT22;22317;47.936;12.742;2022-12-18T16:42:41;-3.70;51.90
36280;DHT22;22317;47.936;12.742;2022-12-18T16:45:09;-4.00;51.90
36280;DHT22;22317;47.936;12.742;2022-12-18T16:47:36;-5.20;51.30
36280;DHT22;22317;47.936;12.742;2022-12-18T16:50:02;-5.20;51.30
36280;DHT22;22317;47.936;12.742;2022-12-18T16:52:29;-5.30;51.40
36280;DHT22;22317;47.936;12.742;2022-12-18T16:54:55;-4.30;51.80
36280;DHT22;22317;47.936;12.742;2022-12-18T16:57:21;-5.40;51.70
36280;DHT22;22317;47.936;12.742;2022-12-18T16:59:47;-5.40;51.70
36280;DHT22;22317;47.936;12.742;2022-12-18T17:02:20;-5.30;51.60
36280;DHT22;22317;47.936;12.742;2022-12-18T17:04:47;-5.50;51.80
36280;DHT22;22317;47.936;12.742;2022-12-18T17:07:13;-5.60;51.90
36280;DHT22;22317;47.936;12.742;2022-12-18T17:09:40;-5.60;51.90
36280;DHT22;22317;47.936;12.742;2022-12-18T17:12:06;-5.60;52.00
36280;DHT22;22317;47.936;12.742;2022-12-18T17:14:32;-5.70;52.10
36280;DHT22;22317;47.936;12.742;2022-12-18T17:16:59;-5.70;52.20
36280;DHT22;22317;47.936;12.742;2022-12-18T17:19:25;-5.50;52.30
36280;DHT22;22317;47.936;12.742;2022-12-18T17:21:52;-5.70;52.30
36280;DHT22;22317;47.936;12.742;2022-12-18T17:24:19;-5.70;52.40
36280;DHT22;22317;47.936;12.742;2022-12-18T17:26:45;-4.90;52.90
36280;DHT22;22317;47.936;12.742;2022-12-18T17:29:15;-5.50;52.50
36280;DHT22;22317;47.936;12.742;2022-12-18T17:31:41;-4.70;53.10
36280;DHT22;22317;47.936;12.742;2022-12-18T17:34:09;-4.90;53.20
36280;DHT22;22317;47.936;12.742;2022-12-18T17:36:36;-5.80;52.70
36280;DHT22;22317;47.936;12.742;2022-12-18T17:39:04;-5.80;52.70
36280;DHT22;22317;47.936;12.742;2022-12-18T17:41:31;-5.80;52.60
36280;DHT22;22317;47.936;12.742;2022-12-18T17:43:59;-5.40;52.80
36280;DHT22;22317;47.936;12.742;2022-12-18T17:46:25;-4.80;53.20